Time;durP1;ratioP1;P1;durP2;ratioP2;P2;SDS_P1;SDS_P2;PMS_P1;PMS_P2;Temp;Humidity;BMP_temperature;BMP_pressure;BME280_temperature;BME280_humidity;BME280_pressure;Samples;Min_cycle;Max_cycle;Signal;HPM_P1;HPM_P2
2023/12/27 00:00:23;;;;;;;28.53;15.07;;;;;;;10.06;70.48;100111.44;125247;1099;104654;-80
2023/12/27 00:03:14;;;;;;;26.07;13.30;;;;;;;10.06;70.73;100121.92;125079;1099;101788;-80
2023/12/27 00:05:46;;;;;;;25.77;12.53;;;;;;;10.04;70.43;100117.50;124877;1102;102269;-80
2023/12/27 00:08:17;;;;;;;23.53;11.90;;;;;;;10.03;71.19;100121.83;125558;1099;104200;-81
2023/12/27 00:10:48;;;;;;;22.70;11.40;;;;;;;10.01;70.69;100123.52;125663;1099;104239;-81
2023/12/27 00:13:19;;;;;;;21.23;9.77;;;;;;;9.99;70.66;100130.45;125707;1098;102327;-82
2023/12/27 00:15:51;;;;;;;22.30;11.17;;;;;;;9.98;71.31;100127.78;125754;1099;101877;-81
2023/12/27 00:18:22;;;;;;;23.70;11.27;;;;;;;9.96;71.09;100135.59;125739;1099;102144;-81
2023/12/27 00:20:53;;;;;;;28.80;12.60;;;;;;;9.93;70.83;100138.13;125697;1099;102012;-80
2023/12/27 00:23:24;;;;;;;26.13;13.37;;;;;;;9.92;70.88;100145.94;125551;1099;104175;-81
2023/12/27 00:25:56;;;;;;;27.40;13.43;;;;;;;9.85;71.11;100147.47;125567;1099;104204;-81
2023/12/27 00:28:28;;;;;;;27.07;13.90;;;;;;;9.80;71.18;100144.70;125313;1099;104338;-81
2023/12/27 00:30:59;;;;;;;25.73;12.43;;;;;;;9.77;70.91;100162.94;125595;1099;102112;-80
2023/12/27 00:33:31;;;;;;;27.03;13.10;;;;;;;9.75;71.53;100155.86;125223;1099;102077;-81
2023/12/27 00:36:02;;;;;;;27.40;13.83;;;;;;;9.74;71.51;100159.30;125514;1098;104243;-81
2023/12/27 00:38:33;;;;;;;28.10;14.67;;;;;;;9.71;71.54;100155.75;125527;1099;102009;-80
2023/12/27 00:41:05;;;;;;;29.23;14.60;;;;;;;9.68;70.94;100155.64;124958;1099;102189;-80
2023/12/27 00:43:36;;;;;;;29.33;14.43;;;;;;;9.69;71.50;100167.92;125011;1099;101891;-80
2023/12/27 00:46:09;;;;;;;27.10;14.50;;;;;;;9.71;71.21;100179.33;125029;1099;104232;-80
2023/12/27 00:48:40;;;;;;;28.70;15.37;;;;;;;9.75;71.26;100182.05;125534;1099;104230;-80
2023/12/27 00:51:20;;;;;;;26.27;14.73;;;;;;;9.78;71.59;100180.42;125034;1099;104163;-79
2023/12/27 00:53:52;;;;;;;29.40;14.87;;;;;;;9.79;71.59;100181.33;125530;1098;102359;-79
2023/12/27 00:56:23;;;;;;;28.33;14.43;;;;;;;9.80;71.98;100177.85;125362;1099;101895;-80
2023/12/27 00:58:54;;;;;;;27.53;14.30;;;;;;;9.82;72.16;100178.81;125578;1099;102996;-80
2023/12/27 01:01:26;;;;;;;28.33;14.17;;;;;;;9.85;71.47;100173.68;124919;1099;104233;-80
2023/12/27 01:03:57;;;;;;;27.40;13.00;;;;;;;9.87;71.88;100174.61;125550;1099;102083;-80
2023/12/27 01:06:29;;;;;;;24.63;12.33;;;;;;;9.86;71.45;100171.11;125575;1099;104191;-80
2023/12/27 01:09:00;;;;;;;27.33;12.70;;;;;;;9.82;71.50;100174.45;125597;1099;104396;-81
2023/12/27 01:11:31;;;;;;;25.07;12.23;;;;;;;9.80;71.98;100180.47;125482;1099;102163;-80
2023/12/27 01:14:03;;;;;;;23.80;11.73;;;;;;;9.77;72.27;100185.61;125683;1098;104172;-80
2023/12/27 01:16:34;;;;;;;26.30;12.03;;;;;;;9.76;71.73;100194.33;125419;1099;101890;-80
2023/12/27 01:19:06;;;;;;;21.67;10.90;;;;;;;9.76;72.09;100196.95;125626;1099;101813;-80
2023/12/27 01:21:37;;;;;;;22.13;9.37;;;;;;;9.76;72.13;100187.34;125629;1099;104265;-81
2023/12/27 01:24:08;;;;;;;21.90;9.97;;;;;;;9.78;72.29;100190.02;125575;1099;104189;-81
2023/12/27 01:26:40;;;;;;;18.37;8.93;;;;;;;9.78;71.64;100192.64;125021;1099;104741;-81
2023/12/27 01:29:11;;;;;;;19.93;9.50;;;;;;;9.75;72.30;100203.90;125109;1098;104086;-83
2023/12/27 01:31:42;;;;;;;22.10;9.27;;;;;;;9.71;71.96;100197.67;125287;1099;104402;-80
2023/12/27 01:34:14;;;;;;;21.13;9.03;;;;;;;9.68;71.99;100183.59;125597;1099;101971;-80
2023/12/27 01:36:45;;;;;;;21.00;9.37;;;;;;;9.69;71.84;100194.12;125432;1099;101987;-80
2023/12/27 01:39:16;;;;;;;21.20;9.30;;;;;;;9.74;72.39;100188.12;124992;1099;104341;-80
2023/12/27 01:41:48;;;;;;;19.60;9.50;;;;;;;9.73;72.28;100183.75;124912;1099;102300;-80
2023/12/27 01:44:19;;;;;;;20.15;9.50;;;;;;;9.79;71.79;100195.31;125425;1099;102530;-80
2023/12/27 01:46:50;;;;;;;22.57;10.13;;;;;;;9.81;72.04;100203.23;125675;1099;104271;-80
2023/12/27 01:49:22;;;;;;;21.60;9.55;;;;;;;9.82;72.41;100198.04;125537;1098;102205;-79
2023/12/27 01:51:54;;;;;;;21.80;9.93;;;;;;;9.84;72.49;100192.84;125052;1099;105822;-80
2023/12/27 01:54:25;;;;;;;23.67;10.93;;;;;;;9.86;72.28;100191.16;125026;1099;104204;-79
2023/12/27 01:56:56;;;;;;;20.47;9.77;;;;;;;9.86;71.94;100189.45;125568;1098;101788;-80
2023/12/27 01:59:28;;;;;;;21.10;10.07;;;;;;;9.87;72.15;100195.58;124989;1099;101963;-80
2023/12/27 02:01:59;;;;;;;20.13;8.83;;;;;;;9.86;72.46;100196.40;125031;1099;104213;-80
2023/12/27 02:04:31;;;;;;;20.10;8.43;;;;;;;9.81;71.91;100187.50;125523;1099;104214;-81
2023/12/27 02:07:03;;;;;;;20.10;8.60;;;;;;;9.75;71.60;100193.42;125053;1099;104237;-80
2023/12/27 02:09:35;;;;;;;20.63;8.97;;;;;;;9.71;71.47;100192.44;125604;1099;102182;-80
2023/12/27 02:12:08;;;;;;;18.90;8.57;;;;;;;9.68;71.58;100187.09;125627;1099;104203;-80
2023/12/27 02:14:40;;;;;;;20.83;9.20;;;;;;;9.67;72.03;100189.66;125681;1099;101832;-81
2023/12/27 02:17:13;;;;;;;20.03;9.57;;;;;;;9.63;71.79;100199.14;125627;1098;102377;-80
2023/12/27 02:19:44;;;;;;;21.50;9.73;;;;;;;9.59;71.49;100197.25;124859;1099;101829;-81
2023/12/27 02:22:20;;;;;;;21.47;9.27;;;;;;;9.53;71.47;100195.30;125554;1099;104300;-80
2023/12/27 02:24:53;;;;;;;24.03;9.53;;;;;;;9.48;71.56;100194.25;125096;1099;104249;-80
2023/12/27 02:27:25;;;;;;;20.03;8.80;;;;;;;9.48;71.47;100201.23;124989;1099;104233;-81
2023/12/27 02:29:56;;;;;;;18.83;9.07;;;;;;;9.46;72.10;100198.55;124985;1099;104280;-80
2023/12/27 02:32:27;;;;;;;17.60;8.67;;;;;;;9.48;71.98;100206.47;125207;1099;104331;-80
2023/12/27 02:34:59;;;;;;;23.43;9.93;;;;;;;9.50;71.62;100207.40;124848;1099;104182;-79
2023/12/27 02:37:30;;;;;;;21.03;10.00;;;;;;;9.54;72.01;100219.78;125521;1099;104172;-80
2023/12/27 02:40:03;;;;;;;19.50;9.20;;;;;;;9.56;71.72;100228.57;125048;1099;104162;-80
2023/12/27 02:42:35;;;;;;;22.15;10.10;;;;;;;9.58;72.09;100226.89;125122;1098;101854;-80
2023/12/27 02:45:08;;;;;;;22.27;10.07;;;;;;;9.60;71.73;100220.00;125583;1096;104169;-80
2023/12/27 02:47:39;;;;;;;22.40;9.87;;;;;;;9.58;72.24;100220.77;125559;1099;104095;-80
2023/12/27 02:50:11;;;;;;;23.13;10.03;;;;;;;9.55;71.82;100229.40;125000;1099;102570;-80
2023/12/27 02:52:43;;;;;;;22.10;10.50;;;;;;;9.52;72.22;100224.05;124925;1100;104175;-80
2023/12/27 02:55:14;;;;;;;20.70;10.10;;;;;;;9.50;71.86;100220.50;125398;1099;101845;-80
2023/12/27 02:57:45;;;;;;;22.37;10.10;;;;;;;9.48;72.26;100220.44;124999;1099;102135;-81
2023/12/27 03:00:18;;;;;;;20.00;8.63;;;;;;;9.46;72.18;100235.22;125526;1099;101969;-80
2023/12/27 03:02:49;;;;;;;22.77;7.83;;;;;;;9.44;71.86;100226.42;125639;1099;104303;-80
2023/12/27 03:05:21;;;;;;;20.33;8.20;;;;;;;9.45;71.92;100229.92;124999;1099;104204;-81
2023/12/27 03:07:54;;;;;;;19.40;7.10;;;;;;;9.44;72.08;100241.23;125674;1099;101836;-81
2023/12/27 03:10:26;;;;;;;17.63;7.60;;;;;;;9.43;71.38;100236.84;125318;1100;104208;-81
2023/12/27 03:12:58;;;;;;;16.10;6.93;;;;;;;9.39;71.68;100234.94;125595;1098;104194;-81
2023/12/27 03:15:29;;;;;;;17.40;7.70;;;;;;;9.36;71.80;100227.86;125660;1099;101932;-80
2023/12/27 03:18:01;;;;;;;23.37;9.30;;;;;;;9.31;71.93;100240.78;125262;1098;102080;-82
2023/12/27 03:20:32;;;;;;;18.23;7.53;;;;;;;9.27;72.03;100235.38;125558;1099;104175;-80
2023/12/27 03:23:04;;;;;;;18.07;7.43;;;;;;;9.21;71.96;100236.06;125489;1099;110875;-80
2023/12/27 03:25:35;;;;;;;19.47;8.30;;;;;;;9.19;71.74;100232.47;125627;1099;101811;-79
2023/12/27 03:28:07;;;;;;;18.60;7.47;;;;;;;9.16;71.09;100230.66;125618;1099;104220;-80
2023/12/27 03:30:39;;;;;;;19.17;8.20;;;;;;;9.14;71.69;100234.04;125602;1099;104214;-80
2023/12/27 03:33:10;;;;;;;19.20;7.97;;;;;;;9.11;71.55;100241.78;125525;1099;101817;-80
2023/12/27 03:35:42;;;;;;;19.37;7.90;;;;;;;9.11;71.86;100236.55;125009;1099;102145;-81
2023/12/27 03:38:13;;;;;;;18.77;7.70;;;;;;;9.08;71.23;100241.66;125671;1099;102080;-81
2023/12/27 03:40:44;;;;;;;18.17;7.73;;;;;;;9.04;71.44;100237.14;125516;1099;104338;-80
2023/12/27 03:43:16;;;;;;;19.00;8.07;;;;;;;9.00;71.28;100244.88;125410;1099;104166;-79
2023/12/27 03:45:49;;;;;;;18.30;7.80;;;;;;;8.97;71.35;100252.61;125659;1098;104193;-80
2023/12/27 03:48:20;;;;;;;18.07;8.15;;;;;;;8.92;71.36;100269.86;125536;1099;101887;-80
2023/12/27 03:50:52;;;;;;;20.17;8.00;;;;;;;8.88;71.84;100265.37;125629;1099;104331;-80
2023/12/27 03:53:23;;;;;;;18.23;7.80;;;;;;;8.88;71.63;100264.45;124950;1099;102367;-81
2023/12/27 03:55:54;;;;;;;18.93;7.87;;;;;;;8.86;71.73;100266.12;125285;1099;104178;-80
2023/12/27 03:58:26;;;;;;;19.03;7.20;;;;;;;8.83;71.94;100271.24;125639;1099;104214;-81
2023/12/27 04:00:57;;;;;;;19.33;7.27;;;;;;;8.84;71.49;100278.27;125621;1099;104268;-83
2023/12/27 04:03:28;;;;;;;15.83;6.70;;;;;;;8.82;71.38;100267.75;124933;1099;104251;-81
2023/12/27 04:06:00;;;;;;;17.43;7.10;;;;;;;8.82;71.68;100272.98;125680;1099;104255;-82
2023/12/27 04:08:31;;;;;;;18.23;7.33;;;;;;;8.79;71.59;100273.73;125001;1102;101877;-81
2023/12/27 04:11:02;;;;;;;16.90;7.17;;;;;;;8.76;71.54;100273.62;124986;1102;102121;-81
2023/12/27 04:13:34;;;;;;;19.87;8.00;;;;;;;8.73;71.93;100276.11;125301;1099;102284;-83
2023/12/27 04:16:05;;;;;;;20.70;8.00;;;;;;;8.67;71.74;100293.30;125744;1099;104207;-81
2023/12/27 04:18:37;;;;;;;20.23;7.87;;;;;;;8.59;72.08;100293.88;125727;1099;102368;-80
2023/12/27 04:21:08;;;;;;;18.63;7.77;;;;;;;8.51;72.08;100294.37;125626;1099;104169;-83
2023/12/27 04:23:40;;;;;;;18.13;8.10;;;;;;;8.43;71.88;100294.03;125346;1099;104240;-82
2023/12/27 04:26:11;;;;;;;15.73;7.10;;;;;;;8.40;71.53;100307.89;125000;1099;104290;-81
2023/12/27 04:28:42;;;;;;;18.83;7.37;;;;;;;8.39;71.95;100308.70;124952;1099;101802;-81
2023/12/27 04:31:14;;;;;;;20.23;8.00;;;;;;;8.40;71.97;100307.89;125592;1099;101981;-82
2023/12/27 04:33:45;;;;;;;17.97;7.70;;;;;;;8.40;72.02;100312.23;124949;1099;104229;-80
2023/12/27 04:36:16;;;;;;;17.77;7.77;;;;;;;8.37;71.88;100315.61;125407;1099;102084;-81
2023/12/27 04:38:49;;;;;;;16.13;8.00;;;;;;;8.34;71.95;100304.14;125098;1099;104779;-81
2023/12/27 04:41:21;;;;;;;16.47;7.23;;;;;;;8.38;71.96;100314.79;124953;1099;102808;-81
2023/12/27 04:43:52;;;;;;;15.17;7.33;;;;;;;8.40;71.58;100320.08;125064;1099;104236;-83
2023/12/27 04:46:23;;;;;;;18.33;7.23;;;;;;;8.44;72.24;100322.89;125638;1099;104236;-84
2023/12/27 04:48:55;;;;;;;13.73;6.43;;;;;;;8.48;72.10;100321.31;125753;1099;104223;-81
2023/12/27 04:51:26;;;;;;;14.13;5.93;;;;;;;8.51;72.32;100333.60;125680;1098;104165;-81
2023/12/27 04:53:57;;;;;;;16.63;7.17;;;;;;;8.51;72.06;100339.75;125538;1099;104156;-82
2023/12/27 04:56:29;;;;;;;17.80;7.17;;;;;;;8.51;71.82;100337.13;124884;1099;102086;-79
2023/12/27 04:59:00;;;;;;;14.93;6.80;;;;;;;8.47;71.84;100343.05;125685;1099;104204;-80
2023/12/27 05:01:32;;;;;;;16.43;7.17;;;;;;;8.43;72.08;100349.89;124981;1099;104311;-79
2023/12/27 05:04:03;;;;;;;19.40;7.30;;;;;;;8.40;71.94;100346.23;125033;1099;104345;-79
2023/12/27 05:06:34;;;;;;;17.43;7.53;;;;;;;8.34;72.55;100351.20;125626;1099;102005;-80
2023/12/27 05:09:05;;;;;;;19.10;8.10;;;;;;;8.30;71.62;100352.77;125633;1098;102225;-78
2023/12/27 05:11:38;;;;;;;19.50;7.70;;;;;;;8.27;72.12;100356.17;125070;1099;102450;-81
2023/12/27 05:14:10;;;;;;;23.13;8.53;;;;;;;8.25;72.02;100362.14;125565;1099;104077;-79
2023/12/27 05:16:41;;;;;;;22.03;8.73;;;;;;;8.21;72.34;100371.59;125833;1098;104217;-80
2023/12/27 05:19:12;;;;;;;18.63;7.47;;;;;;;8.20;72.02;100368.91;125461;1099;102137;-80
2023/12/27 05:21:44;;;;;;;19.17;8.00;;;;;;;8.18;72.03;100376.69;126048;1099;101915;-82
2023/12/27 05:24:15;;;;;;;19.00;8.10;;;;;;;8.17;72.27;100381.84;126759;1098;104108;-81
2023/12/27 05:26:46;;;;;;;19.60;7.80;;;;;;;8.13;72.06;100388.63;126395;1099;104175;-80
2023/12/27 05:29:17;;;;;;;19.87;8.00;;;;;;;8.09;72.17;100381.51;125624;1098;101911;-78
2023/12/27 05:31:50;;;;;;;21.55;7.80;;;;;;;8.03;72.23;100386.47;125684;1099;101881;-80
2023/12/27 05:34:21;;;;;;;20.23;7.90;;;;;;;7.99;72.29;100394.98;125496;1099;102318;-80
2023/12/27 05:36:53;;;;;;;17.17;7.40;;;;;;;7.94;72.13;100381.72;125590;1099;104156;-79
2023/12/27 05:39:25;;;;;;;18.07;7.63;;;;;;;7.89;72.06;100389.34;125332;1099;104265;-80
2023/12/27 05:41:56;;;;;;;18.03;7.70;;;;;;;7.88;72.22;100387.58;125577;1098;104198;-79
2023/12/27 05:44:28;;;;;;;19.53;7.80;;;;;;;7.88;72.49;100395.42;125632;1099;101881;-80
2023/12/27 05:47:00;;;;;;;19.50;7.47;;;;;;;7.89;72.52;100398.91;125554;1098;101898;-80
2023/12/27 05:49:31;;;;;;;17.97;7.13;;;;;;;7.90;72.42;100393.76;125596;1099;104246;-78
2023/12/27 05:52:03;;;;;;;18.27;8.03;;;;;;;7.96;72.52;100395.73;125485;1099;104168;-80
2023/12/27 05:54:34;;;;;;;18.00;8.17;;;;;;;7.99;72.23;100405.44;125205;1099;104111;-82
2023/12/27 05:57:06;;;;;;;17.20;7.83;;;;;;;8.00;72.82;100415.07;124883;1099;101993;-82
2023/12/27 05:59:37;;;;;;;18.60;8.27;;;;;;;8.01;72.60;100414.22;124779;1099;104658;-78
2023/12/27 06:02:08;;;;;;;17.00;7.40;;;;;;;8.00;72.47;100417.69;125401;1099;104236;-80
2023/12/27 06:04:40;;;;;;;16.47;7.47;;;;;;;7.98;72.53;100429.77;125416;1099;104191;-79
2023/12/27 06:07:12;;;;;;;16.60;7.20;;;;;;;7.96;72.83;100437.53;126412;1098;104176;-79
2023/12/27 06:09:45;;;;;;;15.80;7.20;;;;;;;7.99;72.55;100447.24;126168;1099;101915;-82
2023/12/27 06:12:16;;;;;;;18.57;7.63;;;;;;;8.01;72.55;100445.58;126330;1098;104293;-80
2023/12/27 06:14:48;;;;;;;17.87;7.90;;;;;;;8.04;72.66;100445.72;125386;1099;104172;-79
2023/12/27 06:17:21;;;;;;;18.43;7.40;;;;;;;8.07;73.10;100451.09;124844;1099;101919;-80
2023/12/27 06:19:53;;;;;;;17.93;7.67;;;;;;;8.13;72.51;100443.52;124962;1099;104153;-80
2023/12/27 06:22:24;;;;;;;21.53;9.10;;;;;;;8.16;73.05;100454.11;125382;1102;104163;-79
2023/12/27 06:24:58;;;;;;;21.23;9.30;;;;;;;8.17;72.39;100463.75;126483;1098;101897;-80
2023/12/27 06:27:30;;;;;;;18.03;9.13;;;;;;;8.20;72.82;100465.62;127380;1098;104080;-79
2023/12/27 06:30:02;;;;;;;17.37;8.37;;;;;;;8.24;73.08;100475.37;126511;1098;102015;-80
2023/12/27 06:32:34;;;;;;;17.30;7.90;;;;;;;8.26;72.76;100476.36;125476;1099;104257;-77
2023/12/27 06:35:06;;;;;;;16.17;7.53;;;;;;;8.32;72.81;100487.09;116379;1099;10001028;-77
2023/12/27 06:37:37;;;;;;;15.90;8.00;;;;;;;8.34;72.90;100480.19;124646;1099;104176;-80
2023/12/27 06:40:25;;;;;;;15.47;7.03;;;;;;;8.38;72.81;100489.05;125874;1098;104184;-79
2023/12/27 06:42:58;;;;;;;18.27;8.33;;;;;;;8.38;72.49;100500.43;126099;1099;101952;-79
2023/12/27 06:45:29;;;;;;;19.27;9.03;;;;;;;8.43;72.52;100496.33;126028;1099;102083;-80
2023/12/27 06:48:02;;;;;;;19.13;8.93;;;;;;;8.49;72.34;100498.30;126388;1098;104265;-81
2023/12/27 06:50:34;;;;;;;18.10;9.37;;;;;;;8.56;72.18;100512.56;127440;1098;104063;-81
2023/12/27 06:53:24;;;;;;;18.03;8.53;;;;;;;8.60;71.74;100515.37;126912;1099;101782;-80
2023/12/27 06:56:06;;;;;;;19.97;7.63;;;;;;;8.64;71.80;100508.55;126216;1099;104274;-80
2023/12/27 06:58:37;;;;;;;14.80;6.63;;;;;;;8.69;71.27;100521.83;126322;1099;101823;-79
2023/12/27 07:01:09;;;;;;;14.23;5.93;;;;;;;8.77;71.14;100526.58;124949;1099;104238;-79
2023/12/27 07:03:41;;;;;;;13.50;5.70;;;;;;;8.85;70.98;100539.99;125822;1099;102287;-81
2023/12/27 07:06:12;;;;;;;14.30;5.80;;;;;;;8.94;70.87;100544.71;125542;1099;102127;-80
2023/12/27 07:08:44;;;;;;;14.50;5.53;;;;;;;9.02;71.69;100552.89;126200;1099;101932;-81
2023/12/27 07:11:20;;;;;;;11.27;4.93;;;;;;;9.08;70.77;100554.03;125518;1098;104182;-86
2023/12/27 07:13:51;;;;;;;16.03;5.43;;;;;;;9.14;70.47;100556.03;125514;1099;104348;-78
2023/12/27 07:16:23;;;;;;;13.37;4.70;;;;;;;9.19;70.54;100551.88;125537;1098;105501;-82
2023/12/27 07:18:56;;;;;;;12.10;4.70;;;;;;;9.26;70.17;100569.64;125616;1099;101928;-79
2023/12/27 07:21:30;;;;;;;9.63;4.40;;;;;;;9.30;69.82;100568.95;127287;1098;101488;-80
2023/12/27 07:24:01;;;;;;;12.10;5.00;;;;;;;9.37;69.74;100563.97;126750;1098;101884;-79
2023/12/27 07:26:32;;;;;;;10.30;3.77;;;;;;;9.42;69.33;100572.91;126409;1099;101960;-78
2023/12/27 07:29:14;;;;;;;13.83;4.50;;;;;;;9.48;69.93;100570.54;125368;1099;102041;-80
2023/12/27 07:31:46;;;;;;;13.40;4.37;;;;;;;9.50;68.94;100580.23;126440;1098;104088;-80
2023/12/27 07:34:26;;;;;;;11.67;4.57;;;;;;;9.54;68.73;100582.16;126688;1099;102039;-79
2023/12/27 07:37:05;;;;;;;11.10;4.33;;;;;;;9.56;68.21;100597.05;126339;1098;101830;-77
2023/12/27 07:39:41;;;;;;;11.43;4.40;;;;;;;9.58;68.46;100601.50;126445;1098;104191;-78
2023/12/27 07:42:12;;;;;;;8.20;4.13;;;;;;;9.63;67.82;100606.93;125583;1099;102118;-79
2023/12/27 07:44:50;;;;;;;9.03;3.83;;;;;;;9.65;67.30;100616.66;126223;1098;102092;-82
2023/12/27 07:47:28;;;;;;;9.03;3.57;;;;;;;9.71;67.05;100621.27;126164;1099;101833;-79
2023/12/27 07:50:02;;;;;;;9.47;3.60;;;;;;;9.78;66.07;100627.64;126101;1098;104099;-81
2023/12/27 07:52:32;;;;;;;;;;;;;;;9.81;64.80;100628.65;126440;1098;101982;-79
2023/12/27 07:55:17;;;;;;;8.73;3.20;;;;;;;9.88;65.72;100648.16;126350;1099;103165;-82
2023/12/27 07:57:49;;;;;;;7.40;2.90;;;;;;;9.93;64.29;100640.49;125935;1099;104188;-82
2023/12/27 08:00:22;;;;;;;6.57;2.83;;;;;;;10.00;63.98;100652.99;125864;1099;101964;-81
2023/12/27 08:02:55;;;;;;;6.27;3.00;;;;;;;10.06;64.62;100664.61;126577;1099;102046;-83
2023/12/27 08:05:31;;;;;;;10.47;3.20;;;;;;;10.11;64.66;100671.78;126337;1098;102348;-79
2023/12/27 08:08:09;;;;;;;9.23;3.23;;;;;;;10.11;64.87;100677.02;126259;1099;102659;-81
2023/12/27 08:10:40;;;;;;;6.57;2.77;;;;;;;10.10;64.61;100683.09;125802;1099;103079;-83
2023/12/27 08:13:11;;;;;;;6.73;2.90;;;;;;;10.08;63.84;100685.65;125699;1098;102281;-78
2023/12/27 08:15:45;;;;;;;8.33;3.00;;;;;;;10.07;63.83;100694.37;125989;1099;102803;-79
2023/12/27 08:18:19;;;;;;;5.23;2.80;;;;;;;10.05;63.35;100704.80;125405;1099;104252;-76
2023/12/27 08:20:53;;;;;;;7.03;2.93;;;;;;;10.08;63.36;100709.24;125722;1099;102064;-81
2023/12/27 08:23:29;;;;;;;5.77;2.80;;;;;;;10.08;63.11;100707.54;125357;1099;103308;-77
2023/12/27 08:26:20;;;;;;;11.50;4.20;;;;;;;10.12;62.85;100716.42;125606;1099;102549;-85
2023/12/27 08:29:09;;;;;;;6.73;3.03;;;;;;;10.15;61.97;100719.16;125554;1099;101925;-77
2023/12/27 08:31:42;;;;;;;10.60;3.23;;;;;;;10.17;62.05;100711.36;125593;1097;117854;-77
2023/12/27 08:34:29;;;;;;;6.92;2.83;;;;;;;10.25;61.43;100729.20;125596;1098;103315;-76
2023/12/27 08:37:06;;;;;;;7.03;2.47;;;;;;;10.33;61.51;100729.55;116411;1099;10001273;-75
2023/12/27 08:39:41;;;;;;;5.83;2.60;;;;;;;10.41;60.44;100724.62;124764;1099;103411;-74
2023/12/27 08:42:17;;;;;;;4.90;2.27;;;;;;;10.53;60.28;100725.11;125120;1099;103139;-79
2023/12/27 08:45:02;;;;;;;5.70;2.13;;;;;;;10.72;59.70;100729.33;126662;1098;101929;-76
2023/12/27 08:47:49;;;;;;;7.30;2.40;;;;;;;10.81;59.72;100731.40;124908;1099;104096;-79
2023/12/27 08:50:36;;;;;;;4.40;2.20;;;;;;;10.88;59.43;100727.30;126163;1099;101782;-85
2023/12/27 08:53:11;;;;;;;7.30;2.30;;;;;;;10.94;58.23;100730.16;126523;1099;101869;-76
2023/12/27 08:55:49;;;;;;;5.03;2.10;;;;;;;10.98;56.60;100732.05;125951;1098;103307;-78
2023/12/27 08:58:58;;;;;;;4.37;1.90;;;;;;;11.02;56.56;100727.83;125766;1099;102473;-78
2023/12/27 09:01:37;;;;;;;6.97;2.20;;;;;;;11.15;56.55;100740.55;125086;1099;103520;-79
2023/12/27 09:04:20;;;;;;;4.07;1.90;;;;;;;11.27;55.46;100740.12;126272;1099;102689;-76
2023/12/27 09:06:54;;;;;;;7.17;2.10;;;;;;;11.31;54.91;100752.52;124896;1099;104350;-79
2023/12/27 09:09:26;;;;;;;4.23;2.13;;;;;;;11.30;54.27;100748.13;125534;1099;104165;-81
2023/12/27 09:12:01;;;;;;;4.57;1.70;;;;;;;11.19;53.67;100739.84;125589;1099;104317;-81
2023/12/27 09:14:33;;;;;;;8.05;2.10;;;;;;;11.14;53.57;100738.75;125497;1099;103007;-76
2023/12/27 09:17:07;;;;;;;5.57;1.80;;;;;;;11.13;52.50;100742.23;125635;1099;102138;-77
2023/12/27 09:19:39;;;;;;;;;;;;;;;11.17;53.27;100732.73;125773;1099;102707;-78
2023/12/27 09:22:14;;;;;;;5.77;1.87;;;;;;;11.14;54.03;100738.75;125590;1099;102225;-76
2023/12/27 09:24:46;;;;;;;5.50;1.77;;;;;;;11.03;53.34;100737.47;124971;1099;104073;-76
2023/12/27 09:27:21;;;;;;;5.33;1.80;;;;;;;10.90;53.60;100728.24;125278;1099;102061;-78
2023/12/27 09:30:40;;;;;;;6.15;1.87;;;;;;;10.81;53.33;100733.14;126029;1099;102094;-76
2023/12/27 09:33:14;;;;;;;5.27;1.90;;;;;;;10.75;53.54;100732.08;125208;1098;118399;-75
2023/12/27 09:35:45;;;;;;;3.43;1.90;;;;;;;10.76;54.20;100725.97;125607;1099;104163;-80
2023/12/27 09:38:17;;;;;;;3.30;2.03;;;;;;;10.78;54.01;100721.70;125634;1099;102071;-76
2023/12/27 09:40:48;;;;;;;8.43;2.40;;;;;;;10.76;52.99;100728.59;124847;1099;104174;-77
2023/12/27 09:43:21;;;;;;;4.80;2.13;;;;;;;10.75;52.10;100734.70;125057;1099;104271;-77
2023/12/27 09:45:54;;;;;;;3.90;1.80;;;;;;;10.72;52.82;100731.95;125624;1099;102049;-83
2023/12/27 09:48:28;;;;;;;5.37;1.93;;;;;;;10.74;53.17;100722.41;125253;1098;103741;-76
2023/12/27 09:51:00;;;;;;;4.90;2.40;;;;;;;10.78;53.25;100726.03;125491;1099;102231;-78
2023/12/27 09:53:33;;;;;;;4.90;1.92;;;;;;;10.76;52.33;100739.09;124926;1099;104186;-79
2023/12/27 09:56:06;;;;;;;4.05;2.10;;;;;;;10.76;51.76;100743.46;125471;1099;104230;-77
2023/12/27 09:58:39;;;;;;;5.20;2.13;;;;;;;10.73;51.09;100730.22;125043;1099;103576;-78
2023/12/27 10:01:15;;;;;;;4.17;1.70;;;;;;;10.69;51.87;100726.59;125492;1099;104168;-78
2023/12/27 10:03:53;;;;;;;6.00;2.00;;;;;;;10.68;52.01;100730.04;125007;1099;104261;-77
2023/12/27 10:06:32;;;;;;;3.83;1.77;;;;;;;10.68;51.82;100737.91;124916;1099;103350;-78
2023/12/27 10:09:23;;;;;;;6.07;1.90;;;;;;;10.68;51.81;100737.91;125156;1099;104126;-78
2023/12/27 10:11:56;;;;;;;4.60;2.10;;;;;;;10.69;51.20;100738.80;126167;1098;103882;-77
2023/12/27 10:14:35;;;;;;;7.43;1.93;;;;;;;10.66;50.63;100757.96;125404;1099;103293;-78
2023/12/27 10:17:23;;;;;;;8.07;2.43;;;;;;;10.70;51.80;100736.23;125619;1099;101828;-79
2023/12/27 10:19:59;;;;;;;5.20;2.17;;;;;;;10.77;51.93;100745.27;125837;1099;102167;-77
2023/12/27 10:22:31;;;;;;;8.33;2.77;;;;;;;10.78;51.25;100742.70;126479;1098;102333;-78
2023/12/27 10:25:03;;;;;;;3.23;1.83;;;;;;;10.81;50.32;100748.89;124975;1099;103223;-77
2023/12/27 10:27:39;;;;;;;13.50;2.23;;;;;;;10.73;50.14;100749.48;124805;1099;102224;-75
2023/12/27 10:30:23;;;;;;;4.00;1.90;;;;;;;10.65;49.08;100745.66;125693;1099;102110;-78
2023/12/27 10:33:05;;;;;;;4.67;1.77;;;;;;;10.62;49.25;100758.66;125137;1099;102592;-79
2023/12/27 10:35:38;;;;;;;3.80;1.90;;;;;;;10.63;49.84;100749.97;125819;1098;102913;-78
2023/12/27 10:38:09;;;;;;;6.22;1.90;;;;;;;10.63;49.49;100760.47;125483;1099;104213;-78
2023/12/27 10:40:41;;;;;;;4.90;1.97;;;;;;;10.62;50.43;100748.17;125453;1099;103087;-79
2023/12/27 10:43:15;;;;;;;4.80;1.50;;;;;;;10.59;49.95;100748.05;125852;1098;101918;-78
2023/12/27 10:45:47;;;;;;;5.30;1.95;;;;;;;10.53;50.51;100758.30;125687;1099;104179;-78
2023/12/27 10:51:13;;;;;;;5.70;1.87;;;;;;;10.45;50.09;100760.61;125037;1099;104169;-77
2023/12/27 10:53:50;;;;;;;5.57;2.07;;;;;;;10.41;50.43;100754.36;125280;1098;101893;-77
2023/12/27 10:56:23;;;;;;;4.43;1.77;;;;;;;10.39;50.32;100761.28;125340;1099;101788;-78
2023/12/27 10:58:55;;;;;;;5.77;1.97;;;;;;;10.35;49.91;100776.83;125210;1099;104073;-76
2023/12/27 11:01:30;;;;;;;5.53;1.90;;;;;;;10.28;49.36;100769.50;125520;1099;104238;-77
2023/12/27 11:04:04;;;;;;;6.30;2.20;;;;;;;10.22;49.74;100775.38;124512;1098;103117;-76
2023/12/27 11:06:38;;;;;;;6.10;1.73;;;;;;;10.20;49.32;100769.17;124816;1099;102411;-79
2023/12/27 11:09:13;;;;;;;8.28;2.45;;;;;;;10.15;50.06;100781.22;125554;1099;104179;-78
2023/12/27 11:11:45;;;;;;;4.87;1.90;;;;;;;10.13;50.12;100778.53;124706;1099;104306;-76
2023/12/27 11:14:24;;;;;;;5.93;2.33;;;;;;;10.10;49.90;100775.78;125141;1099;104220;-77
2023/12/27 11:16:59;;;;;;;6.00;1.93;;;;;;;10.09;50.00;100779.22;125238;1099;102442;-76
2023/12/27 11:19:33;;;;;;;6.83;2.57;;;;;;;10.05;49.49;100778.20;124926;1098;104361;-76
2023/12/27 11:22:05;;;;;;;9.88;2.17;;;;;;;10.05;50.22;100779.91;125155;1099;103359;-77
2023/12/27 11:24:38;;;;;;;4.93;2.17;;;;;;;10.03;50.01;100776.34;124841;1099;101993;-77
2023/12/27 11:27:09;;;;;;;5.33;2.23;;;;;;;9.98;49.88;100798.84;125144;1099;101924;-73
2023/12/27 11:29:42;;;;;;;6.33;2.40;;;;;;;9.98;49.90;100780.50;125131;1099;104283;-76
2023/12/27 11:32:13;;;;;;;3.60;2.03;;;;;;;10.01;49.69;100783.25;125295;1099;101985;-81
2023/12/27 11:34:45;;;;;;;5.60;2.27;;;;;;;10.02;49.75;100792.89;125453;1099;102673;-79
2023/12/27 11:37:18;;;;;;;3.60;1.90;;;;;;;10.03;49.79;100781.58;127194;1098;102099;-80
2023/12/27 11:39:57;;;;;;;6.83;2.40;;;;;;;10.05;50.15;100798.27;126355;1098;101801;-76